createdAt,value
2023-03-06T00:01:49.830Z,100282.38
2023-03-06T00:04:53.513Z,100279.16
2023-03-06T00:07:56.406Z,100279.66
2023-03-06T00:10:59.634Z,100278.00
2023-03-06T00:14:02.450Z,100277.88
2023-03-06T00:17:05.333Z,100285.44
2023-03-06T00:20:08.802Z,100281.56
2023-03-06T00:23:12.706Z,100286.97
2023-03-06T00:26:15.622Z,100276.38
2023-03-06T00:29:18.710Z,100287.81
2023-03-06T00:32:21.785Z,100285.03
2023-03-06T00:35:24.638Z,100280.13
2023-03-06T00:38:28.757Z,100281.06
2023-03-06T00:41:32.383Z,100277.94
2023-03-06T00:44:35.204Z,100283.16
2023-03-06T00:47:38.073Z,100278.06
2023-03-06T00:50:40.854Z,100283.13
2023-03-06T00:53:43.702Z,100285.38
2023-03-06T00:56:46.564Z,100276.22
2023-03-06T00:59:49.371Z,100277.00
2023-03-06T01:02:53.828Z,100276.00
2023-03-06T01:05:58.405Z,100278.66
2023-03-06T01:09:06.625Z,100276.00
2023-03-06T01:12:09.804Z,100262.53
2023-03-06T01:15:13.359Z,100275.06
2023-03-06T01:18:16.154Z,100267.69
2023-03-06T01:21:19.176Z,100262.44
2023-03-06T01:24:24.084Z,100262.94
2023-03-06T01:27:26.952Z,100253.81
2023-03-06T01:30:29.826Z,100252.00
2023-03-06T01:33:33.813Z,100249.38
2023-03-06T01:36:36.969Z,100247.03
2023-03-06T01:39:39.744Z,100250.09
2023-03-06T01:42:43.257Z,100248.50
2023-03-06T01:45:46.094Z,100247.13
2023-03-06T01:48:52.629Z,100238.59
2023-03-06T01:52:02.029Z,100238.25
2023-03-06T01:55:23.075Z,100237.91
2023-03-06T01:58:25.963Z,100243.56
2023-03-06T02:01:31.315Z,100227.69
2023-03-06T02:04:35.250Z,100224.34
2023-03-06T02:07:38.645Z,100220.94
2023-03-06T02:10:58.793Z,100215.09
2023-03-06T02:14:01.705Z,100217.88
2023-03-06T02:17:04.675Z,100216.28
2023-03-06T02:20:12.357Z,100219.31
2023-03-06T02:23:21.094Z,100219.00
2023-03-06T02:26:26.591Z,100215.69
2023-03-06T02:29:31.853Z,100211.13
2023-03-06T02:32:38.242Z,100215.06
2023-03-06T02:35:54.306Z,100222.06
2023-03-06T02:38:58.017Z,100214.59
2023-03-06T02:42:01.332Z,100210.47
2023-03-06T02:45:10.973Z,100207.19
2023-03-06T02:48:15.407Z,100214.50
2023-03-06T02:51:18.659Z,100213.31
2023-03-06T02:54:21.345Z,100212.22
2023-03-06T02:57:24.180Z,100211.31
2023-03-06T03:00:28.080Z,100208.09
2023-03-06T03:03:30.968Z,100206.47
2023-03-06T03:06:34.331Z,100209.59
2023-03-06T03:09:38.154Z,100207.94
2023-03-06T03:12:41.600Z,100197.53
2023-03-06T03:15:44.607Z,100200.63
2023-03-06T03:18:51.503Z,100191.50
2023-03-06T03:21:57.773Z,100194.13
2023-03-06T03:25:00.681Z,100185.94
2023-03-06T03:28:03.643Z,100192.16
2023-03-06T03:31:08.650Z,100190.47
2023-03-06T03:34:12.026Z,100181.94
2023-03-06T03:37:16.790Z,100181.06
2023-03-06T03:40:19.696Z,100184.81
2023-03-06T03:43:26.256Z,100174.66
2023-03-06T03:46:29.258Z,100181.69
2023-03-06T03:49:33.041Z,100174.66
2023-03-06T03:52:37.457Z,100179.19
2023-03-06T03:55:40.578Z,100182.03
2023-03-06T03:58:43.436Z,100173.50
2023-03-06T04:01:46.359Z,100176.03
2023-03-06T04:04:50.167Z,100176.13
2023-03-06T04:07:53.282Z,100169.31
2023-03-06T04:10:56.917Z,100169.66
2023-03-06T04:14:00.523Z,100176.25
2023-03-06T04:17:03.578Z,100179.38
2023-03-06T04:20:06.904Z,100169.16
2023-03-06T04:23:10.867Z,100175.03
2023-03-06T04:26:13.958Z,100167.22
2023-03-06T04:29:17.270Z,100165.75
2023-03-06T04:32:21.509Z,100138.81
2023-03-06T04:35:24.955Z,100114.00
2023-03-06T04:38:34.046Z,100109.72
2023-03-06T04:41:40.524Z,100119.06
2023-03-06T04:44:44.115Z,100122.31
2023-03-06T04:47:47.133Z,100115.97
2023-03-06T04:50:49.887Z,100106.97
2023-03-06T04:53:52.731Z,100102.22
2023-03-06T04:56:55.538Z,100099.25
2023-03-06T04:59:58.305Z,100096.97
2023-03-06T05:03:02.367Z,100093.03
2023-03-06T05:06:05.645Z,100093.69
2023-03-06T05:09:08.372Z,100091.25
2023-03-06T05:12:11.120Z,100092.22
2023-03-06T05:15:14.370Z,100094.69
2023-03-06T05:18:17.789Z,100090.59
2023-03-06T05:21:20.599Z,100091.75
2023-03-06T05:24:23.755Z,100091.91
2023-03-06T05:27:27.656Z,100097.47
2023-03-06T05:30:30.509Z,100096.66
2023-03-06T05:33:35.192Z,100093.06
2023-03-06T05:36:37.978Z,100093.03
2023-03-06T05:39:40.760Z,100096.94
2023-03-06T05:42:43.705Z,100098.41
2023-03-06T05:45:46.635Z,100097.44
2023-03-06T05:48:49.577Z,100091.22
2023-03-06T05:51:52.814Z,100083.53
2023-03-06T05:54:55.715Z,100096.09
2023-03-06T05:57:58.632Z,100095.25
2023-03-06T06:01:09.548Z,100098.34
2023-03-06T06:04:15.322Z,100106.44
2023-03-06T06:07:18.352Z,100095.13
2023-03-06T06:10:21.517Z,100104.47
2023-03-06T06:13:24.464Z,100111.16
2023-03-06T06:16:27.344Z,100109.72
2023-03-06T06:19:31.120Z,100115.44
2023-03-06T06:22:37.634Z,100120.88
2023-03-06T06:25:40.581Z,100115.66
2023-03-06T06:28:43.403Z,100120.22
2023-03-06T06:31:46.864Z,100119.91
2023-03-06T06:34:49.588Z,100111.72
2023-03-06T06:37:52.540Z,100119.53
2023-03-06T06:41:30.624Z,100119.59
2023-03-06T06:44:19.411Z,100101.44
2023-03-06T06:47:24.643Z,100108.94
2023-03-06T06:50:27.893Z,100106.31
2023-03-06T06:53:30.876Z,100099.19
2023-03-06T06:56:33.866Z,100095.00
2023-03-06T06:59:36.823Z,100091.88
2023-03-06T07:02:39.592Z,100095.81
2023-03-06T07:05:42.686Z,100087.66
2023-03-06T07:08:45.652Z,100087.72
2023-03-06T07:11:50.502Z,100087.28
2023-03-06T07:14:54.283Z,100089.13
2023-03-06T07:17:57.601Z,100088.59
2023-03-06T07:21:01.388Z,100092.59
2023-03-06T07:24:04.878Z,100089.34
2023-03-06T07:27:08.782Z,100089.13
2023-03-06T07:30:13.860Z,100073.16
2023-03-06T07:33:17.348Z,100076.63
2023-03-06T07:36:21.737Z,100089.81
2023-03-06T07:39:24.542Z,100096.94
2023-03-06T07:42:29.444Z,100085.88
2023-03-06T07:45:37.136Z,100091.09
2023-03-06T07:48:40.761Z,100088.75
2023-03-06T07:51:43.989Z,100110.59
2023-03-06T07:54:48.395Z,100109.75
2023-03-06T07:57:51.751Z,100104.81
2023-03-06T08:00:55.055Z,100110.63
2023-03-06T08:03:59.461Z,100104.97
2023-03-06T08:07:03.627Z,100097.81
2023-03-06T08:10:07.178Z,100098.66
2023-03-06T08:13:10.382Z,100100.34
2023-03-06T08:16:18.533Z,100084.97
2023-03-06T08:19:21.576Z,100086.84
2023-03-06T08:22:24.410Z,100085.41
2023-03-06T08:25:27.238Z,100078.19
2023-03-06T08:28:30.163Z,100084.25
2023-03-06T08:31:42.419Z,100088.94
2023-03-06T08:34:45.817Z,100082.16
2023-03-06T08:37:48.687Z,100077.88
2023-03-06T08:40:51.464Z,100069.09
2023-03-06T08:43:54.415Z,100075.59
2023-03-06T08:46:57.253Z,100075.22
2023-03-06T08:50:00.804Z,100081.34
2023-03-06T08:53:42.173Z,100062.28
2023-03-06T08:56:56.184Z,100061.25
2023-03-06T08:59:59.638Z,100069.19
2023-03-06T09:03:02.739Z,100069.38
2023-03-06T09:06:06.251Z,100062.91
2023-03-06T09:09:09.454Z,100065.25
2023-03-06T09:12:12.452Z,100067.72
2023-03-06T09:15:16.093Z,100060.97
2023-03-06T09:18:24.803Z,100057.56
2023-03-06T09:21:30.816Z,100049.56
2023-03-06T09:24:34.169Z,100044.41
2023-03-06T09:27:37.064Z,100038.50
2023-03-06T09:30:41.216Z,100047.50
2023-03-06T09:33:44.878Z,100042.78
2023-03-06T09:36:56.891Z,100047.69
2023-03-06T09:40:00.567Z,100039.72
2023-03-06T09:43:03.378Z,100037.53
2023-03-06T09:46:43.697Z,100030.22
2023-03-06T09:49:52.979Z,100021.13
2023-03-06T09:53:17.216Z,100041.38
2023-03-06T09:56:31.798Z,100034.63
2023-03-06T09:59:36.353Z,100032.94
2023-03-06T10:02:45.483Z,100018.97
2023-03-06T10:05:56.975Z,100027.91
2023-03-06T10:09:12.618Z,100020.13
2023-03-06T10:12:32.782Z,100035.09
2023-03-06T10:15:39.576Z,100034.28
2023-03-06T10:18:42.575Z,100025.50
2023-03-06T10:21:59.272Z,100017.75
2023-03-06T10:25:28.195Z,100007.50
2023-03-06T10:28:42.930Z,99999.19
2023-03-06T10:32:01.935Z,100010.97
2023-03-06T10:35:15.794Z,99997.13
2023-03-06T10:38:21.847Z,99988.75
2023-03-06T10:41:30.621Z,99998.13
2023-03-06T10:44:33.360Z,99978.84
2023-03-06T10:47:37.779Z,99974.06
2023-03-06T10:50:43.681Z,99976.97
2023-03-06T10:54:11.283Z,99989.44
2023-03-06T10:57:32.518Z,99971.09
2023-03-06T11:00:38.763Z,99955.84
2023-03-06T11:03:45.615Z,99950.72
2023-03-06T11:07:07.025Z,99944.09
2023-03-06T11:10:23.449Z,99936.50
2023-03-06T11:13:29.613Z,99931.50
2023-03-06T11:16:32.564Z,99932.09
2023-03-06T11:19:35.517Z,99932.06
2023-03-06T11:22:40.090Z,99937.03
2023-03-06T11:25:58.369Z,99920.19
2023-03-06T11:29:04.338Z,99915.44
2023-03-06T11:32:18.757Z,99905.97
2023-03-06T11:35:27.756Z,99903.81
2023-03-06T11:38:40.514Z,99910.88
2023-03-06T11:42:07.021Z,99914.59
2023-03-06T11:45:34.962Z,99908.69
2023-03-06T11:48:44.220Z,99916.56
2023-03-06T11:52:03.186Z,99917.94
2023-03-06T11:55:12.813Z,99909.81
2023-03-06T11:58:40.512Z,99904.78
2023-03-06T12:02:53.991Z,99929.38
2023-03-06T12:06:37.020Z,99924.97
2023-03-06T12:10:02.235Z,99915.41
2023-03-06T12:13:16.409Z,99914.63
2023-03-06T12:16:52.929Z,99905.81
2023-03-06T12:20:20.671Z,99893.44
2023-03-06T12:23:35.461Z,99883.66
2023-03-06T12:26:56.988Z,99863.34
2023-03-06T12:30:38.165Z,99851.66
2023-03-06T12:34:05.890Z,99846.22
2023-03-06T12:37:29.877Z,99830.41
2023-03-06T12:40:38.808Z,99823.88
2023-03-06T12:44:00.824Z,99814.88
2023-03-06T12:47:08.890Z,99813.47
2023-03-06T12:50:25.442Z,99802.44
2023-03-06T12:53:31.015Z,99802.66
2023-03-06T12:56:35.630Z,99793.19
2023-03-06T12:59:48.572Z,99785.72
2023-03-06T13:03:06.715Z,99779.16
2023-03-06T13:06:32.447Z,99791.47
2023-03-06T13:09:59.956Z,99785.25
2023-03-06T13:13:57.732Z,99784.97
2023-03-06T13:17:31.714Z,99787.75
2023-03-06T13:20:40.113Z,99798.44
2023-03-06T13:23:52.152Z,99790.72
2023-03-06T13:27:01.403Z,99796.56
2023-03-06T13:30:19.891Z,99791.34
2023-03-06T13:33:30.245Z,99794.88
2023-03-06T13:36:39.639Z,99786.78
2023-03-06T13:40:05.996Z,99782.75
2023-03-06T13:43:08.836Z,99783.88
2023-03-06T13:46:38.392Z,99788.56
2023-03-06T13:49:46.599Z,99792.28
2023-03-06T13:52:57.819Z,99792.16
2023-03-06T13:56:16.114Z,99790.63
2023-03-06T13:59:41.786Z,99793.31
2023-03-06T14:03:15.519Z,99782.56
2023-03-06T14:06:37.480Z,99775.06
2023-03-06T14:09:45.921Z,99761.09
2023-03-06T14:12:51.821Z,99759.34
2023-03-06T14:15:55.865Z,99758.34
2023-03-06T14:19:00.889Z,99745.00
2023-03-06T14:22:06.111Z,99743.94
2023-03-06T14:25:35.218Z,99736.44
2023-03-06T14:28:38.142Z,99729.56
2023-03-06T14:31:43.064Z,99733.16
2023-03-06T14:34:47.131Z,99722.47
2023-03-06T14:37:53.385Z,99715.72
2023-03-06T14:40:56.565Z,99710.63
2023-03-06T14:44:16.919Z,99718.75
2023-03-06T14:47:27.503Z,99722.84
2023-03-06T14:50:34.170Z,99715.88
2023-03-06T14:53:37.174Z,99724.13
2023-03-06T14:56:46.115Z,99720.06
2023-03-06T14:59:58.208Z,99720.91
2023-03-06T15:03:02.114Z,99714.78
2023-03-06T15:06:06.398Z,99714.34
2023-03-06T15:09:20.507Z,99717.00
2023-03-06T15:12:23.633Z,99717.22
2023-03-06T15:15:30.027Z,99725.53
2023-03-06T15:18:36.402Z,99730.03
2023-03-06T15:21:39.350Z,99734.19
2023-03-06T15:24:42.246Z,99735.34
2023-03-06T15:28:22.769Z,99737.66
2023-03-06T15:31:31.059Z,99736.03
2023-03-06T15:34:33.900Z,99743.78
2023-03-06T15:37:36.700Z,99733.16
2023-03-06T15:40:39.524Z,99732.94
2023-03-06T15:43:42.286Z,99729.47
2023-03-06T15:46:45.117Z,99724.03
2023-03-06T15:49:52.116Z,99726.75
2023-03-06T15:52:55.382Z,99728.84
2023-03-06T15:55:59.469Z,99727.00
2023-03-06T15:59:02.922Z,99722.66
2023-03-06T16:02:14.960Z,99723.00
2023-03-06T16:05:18.588Z,99717.25
2023-03-06T16:08:21.584Z,99715.41
2023-03-06T16:11:35.327Z,99714.88
2023-03-06T16:14:47.558Z,99711.50
2023-03-06T16:17:50.362Z,99709.38
2023-03-06T16:20:53.180Z,99711.22
2023-03-06T16:23:56.290Z,99715.59
2023-03-06T16:27:01.742Z,99710.53
2023-03-06T16:30:05.567Z,99711.78
2023-03-06T16:33:12.972Z,99716.59
2023-03-06T16:36:27.149Z,99724.28
2023-03-06T16:39:30.200Z,99719.91
2023-03-06T16:42:34.337Z,99717.81
2023-03-06T16:45:39.342Z,99725.47
2023-03-06T16:48:42.526Z,99717.81
2023-03-06T16:51:45.538Z,99723.31
2023-03-06T16:54:48.330Z,99726.78
2023-03-06T16:57:51.276Z,99735.34
2023-03-06T17:00:54.798Z,99743.53
2023-03-06T17:03:59.005Z,99738.88
2023-03-06T17:07:01.993Z,99741.28
2023-03-06T17:10:07.107Z,99734.69
2023-03-06T17:13:10.988Z,99727.97
2023-03-06T17:16:16.567Z,99738.78
2023-03-06T17:19:19.565Z,99726.13
2023-03-06T17:22:22.566Z,99721.72
2023-03-06T17:25:25.290Z,99712.34
2023-03-06T17:28:28.031Z,99698.19
2023-03-06T17:31:31.161Z,99691.88
2023-03-06T17:34:34.542Z,99694.97
2023-03-06T17:37:37.651Z,99689.44
2023-03-06T17:40:41.801Z,99693.06
2023-03-06T17:43:44.619Z,99686.38
2023-03-06T17:46:47.565Z,99693.56
2023-03-06T17:49:50.571Z,99692.09
2023-03-06T17:52:56.664Z,99698.97
2023-03-06T17:55:59.605Z,99717.06
2023-03-06T17:59:02.549Z,99735.13
2023-03-06T18:02:06.746Z,99741.38
2023-03-06T18:05:10.040Z,99752.94
2023-03-06T18:08:13.222Z,99771.38
2023-03-06T18:11:17.699Z,99789.91
2023-03-06T18:14:20.985Z,99790.63
2023-03-06T18:17:24.125Z,99796.22
2023-03-06T18:20:26.966Z,99805.03
2023-03-06T18:23:30.044Z,99789.81
2023-03-06T18:26:33.167Z,99787.84
2023-03-06T18:29:36.178Z,99783.97
2023-03-06T18:32:39.209Z,99781.56
2023-03-06T18:35:44.288Z,99789.69
2023-03-06T18:38:48.129Z,99797.00
2023-03-06T18:41:51.925Z,99790.69
2023-03-06T18:44:54.950Z,99792.31
2023-03-06T18:47:57.838Z,99782.78
2023-03-06T18:51:06.195Z,99778.34
2023-03-06T18:54:11.730Z,99773.25
2023-03-06T18:57:14.791Z,99771.25
2023-03-06T19:00:18.434Z,99759.09
2023-03-06T19:03:21.683Z,99754.47
2023-03-06T19:06:26.983Z,99756.09
2023-03-06T19:09:30.683Z,99749.41
2023-03-06T19:12:35.544Z,99747.41
2023-03-06T19:15:46.299Z,99748.63
2023-03-06T19:18:49.753Z,99739.09
2023-03-06T19:21:53.992Z,99739.31
2023-03-06T19:24:57.112Z,99735.06
2023-03-06T19:28:00.609Z,99730.41
2023-03-06T19:31:11.813Z,99727.59
2023-03-06T19:34:14.712Z,99733.44
2023-03-06T19:37:18.325Z,99728.97
2023-03-06T19:40:21.346Z,99722.50
2023-03-06T19:43:24.472Z,99716.00
2023-03-06T19:46:27.576Z,99714.31
2023-03-06T19:49:31.162Z,99713.91
2023-03-06T19:52:36.712Z,99708.06
2023-03-06T19:55:40.192Z,99705.19
2023-03-06T19:58:44.210Z,99710.69
2023-03-06T20:01:47.379Z,99717.16
2023-03-06T20:04:51.547Z,99717.03
2023-03-06T20:07:54.725Z,99709.34
2023-03-06T20:10:57.902Z,99709.34
2023-03-06T20:14:03.265Z,99699.22
2023-03-06T20:17:06.335Z,99698.94
2023-03-06T20:20:10.451Z,99703.38
2023-03-06T20:23:15.624Z,99708.25
2023-03-06T20:26:20.711Z,99715.31
2023-03-06T20:29:26.642Z,99714.25
2023-03-06T20:32:31.596Z,99717.47
2023-03-06T20:35:34.731Z,99722.09
2023-03-06T20:38:39.134Z,99723.94
2023-03-06T20:41:43.167Z,99726.75
2023-03-06T20:44:46.228Z,99724.47
2023-03-06T20:47:50.965Z,99725.66
2023-03-06T20:51:08.607Z,99734.16
2023-03-06T20:54:13.803Z,99738.81
2023-03-06T20:57:16.810Z,99734.72
2023-03-06T21:00:21.145Z,99736.72
2023-03-06T21:03:24.690Z,99740.69
2023-03-06T21:06:29.062Z,99743.53
2023-03-06T21:09:34.606Z,99744.34
2023-03-06T21:12:37.428Z,99739.47
2023-03-06T21:15:41.785Z,99752.88
2023-03-06T21:18:45.385Z,99748.59
2023-03-06T21:21:48.451Z,99744.78
2023-03-06T21:24:51.554Z,99750.69
2023-03-06T21:27:54.595Z,99754.94
2023-03-06T21:31:00.848Z,99766.91
2023-03-06T21:34:05.223Z,99762.66
2023-03-06T21:37:08.818Z,99763.97
2023-03-06T21:40:14.189Z,99770.41
2023-03-06T21:43:17.809Z,99759.69
2023-03-06T21:46:20.591Z,99765.53
2023-03-06T21:49:26.248Z,99760.88
2023-03-06T21:52:29.656Z,99757.47
2023-03-06T21:55:32.385Z,99751.19
2023-03-06T21:58:35.744Z,99757.47
2023-03-06T22:01:38.726Z,99754.25
2023-03-06T22:04:41.730Z,99743.94
2023-03-06T22:07:44.898Z,99740.88
2023-03-06T22:10:49.213Z,99746.50
2023-03-06T22:13:53.580Z,99747.88
2023-03-06T22:16:59.170Z,99754.97
2023-03-06T22:20:02.202Z,99750.31
2023-03-06T22:23:05.410Z,99756.38
2023-03-06T22:26:11.307Z,99764.63
2023-03-06T22:29:14.031Z,99778.41
2023-03-06T22:32:17.049Z,99785.72
2023-03-06T22:35:20.078Z,99781.97
2023-03-06T22:38:22.884Z,99772.84
2023-03-06T22:41:26.983Z,99772.03
2023-03-06T22:44:30.105Z,99772.88
2023-03-06T22:47:36.438Z,99772.13
2023-03-06T22:50:39.266Z,99765.06
2023-03-06T22:53:42.438Z,99768.94
2023-03-06T22:56:45.337Z,99765.31
2023-03-06T22:59:48.124Z,99765.06
2023-03-06T23:02:50.894Z,99765.41
2023-03-06T23:05:54.163Z,99769.50
2023-03-06T23:08:59.797Z,99785.88
2023-03-06T23:12:02.512Z,99782.88
2023-03-06T23:15:23.780Z,99785.28
2023-03-06T23:18:45.313Z,99785.34
2023-03-06T23:22:06.751Z,99786.78
2023-03-06T23:25:27.950Z,99790.66
2023-03-06T23:28:30.984Z,99796.31
2023-03-06T23:31:33.959Z,99790.88
2023-03-06T23:34:37.073Z,99784.13
2023-03-06T23:37:39.859Z,99780.44
2023-03-06T23:40:42.705Z,99785.44
2023-03-06T23:43:46.822Z,99786.88
2023-03-06T23:46:49.611Z,99791.94
2023-03-06T23:49:52.336Z,99796.53
2023-03-06T23:52:55.545Z,99793.31
2023-03-06T23:55:58.486Z,99798.59
2023-03-06T23:59:01.399Z,99792.75
